createdAt,value
2023-03-05T00:01:23.025Z,19.25
2023-03-05T00:04:15.117Z,20.63
2023-03-05T00:07:05.531Z,23.35
2023-03-05T00:09:54.029Z,19.80
2023-03-05T00:12:42.515Z,17.50
2023-03-05T00:15:31.065Z,20.27
2023-03-05T00:18:19.651Z,19.63
2023-03-05T00:21:20.050Z,20.60
2023-03-05T00:24:13.229Z,19.17
2023-03-05T00:27:01.679Z,22.65
2023-03-05T00:29:50.178Z,17.77
2023-03-05T00:32:38.741Z,18.58
2023-03-05T00:35:27.346Z,20.97
2023-03-05T00:38:15.825Z,17.77
2023-03-05T00:41:05.978Z,19.83
2023-03-05T00:43:54.542Z,19.20
2023-03-05T00:46:43.129Z,14.95
2023-03-05T00:49:31.652Z,19.38
2023-03-05T00:52:20.088Z,18.02
2023-03-05T00:55:09.451Z,17.45
2023-03-05T00:57:59.312Z,16.02
2023-03-05T01:00:50.530Z,19.42
2023-03-05T01:03:39.072Z,17.95
2023-03-05T01:06:27.881Z,16.97
2023-03-05T01:09:16.388Z,19.63
2023-03-05T01:12:05.095Z,17.52
2023-03-05T01:14:54.886Z,17.33
2023-03-05T01:17:43.388Z,16.30
2023-03-05T01:20:31.864Z,15.55
2023-03-05T01:23:20.457Z,15.15
2023-03-05T01:26:09.617Z,14.77
2023-03-05T01:28:58.118Z,13.20
2023-03-05T01:31:48.065Z,19.47
2023-03-05T01:34:38.204Z,14.77
2023-03-05T01:37:26.749Z,14.20
2023-03-05T01:40:18.000Z,13.68
2023-03-05T01:43:24.632Z,13.35
2023-03-05T01:46:37.365Z,16.13
2023-03-05T01:49:28.932Z,17.07
2023-03-05T01:52:20.240Z,17.38
2023-03-05T01:55:13.032Z,14.80
2023-03-05T01:58:06.361Z,16.60
2023-03-05T02:00:56.820Z,16.35
2023-03-05T02:03:45.619Z,17.40
2023-03-05T02:06:35.589Z,14.75
2023-03-05T02:09:24.405Z,13.53
2023-03-05T02:12:14.736Z,13.32
2023-03-05T02:15:03.167Z,11.48
2023-03-05T02:17:51.735Z,12.00
2023-03-05T02:20:49.345Z,12.55
2023-03-05T02:23:40.258Z,14.73
2023-03-05T02:26:28.712Z,11.77
2023-03-05T02:29:21.121Z,12.90
2023-03-05T02:32:09.835Z,13.30
2023-03-05T02:34:58.364Z,13.55
2023-03-05T02:37:46.843Z,10.88
2023-03-05T02:40:36.681Z,11.45
2023-03-05T02:43:25.260Z,11.27
2023-03-05T02:46:13.816Z,10.52
2023-03-05T02:49:02.438Z,10.60
2023-03-05T02:51:50.927Z,10.38
2023-03-05T02:54:39.443Z,9.38
2023-03-05T02:57:29.503Z,8.80
2023-03-05T03:00:18.158Z,10.48
2023-03-05T03:03:06.654Z,9.40
2023-03-05T03:05:55.129Z,7.47
2023-03-05T03:08:43.559Z,9.02
2023-03-05T03:11:32.006Z,8.93
2023-03-05T03:14:22.265Z,7.60
2023-03-05T03:17:12.224Z,12.20
2023-03-05T03:20:02.777Z,10.00
2023-03-05T03:22:51.405Z,9.52
2023-03-05T03:25:39.825Z,8.48
2023-03-05T03:28:28.308Z,9.57
2023-03-05T03:31:18.668Z,8.07
2023-03-05T03:34:07.226Z,10.65
2023-03-05T03:36:56.334Z,10.27
2023-03-05T03:39:44.757Z,9.23
2023-03-05T03:42:33.820Z,8.80
2023-03-05T03:45:22.768Z,9.32
2023-03-05T03:48:13.083Z,7.72
2023-03-05T03:51:04.739Z,10.10
2023-03-05T03:53:53.195Z,7.90
2023-03-05T03:56:41.777Z,9.88
2023-03-05T03:59:30.309Z,9.07
2023-03-05T04:02:19.535Z,8.75
2023-03-05T04:05:10.389Z,8.95
2023-03-05T04:07:59.920Z,10.00
2023-03-05T04:10:48.344Z,11.65
2023-03-05T04:13:37.046Z,10.45
2023-03-05T04:16:25.571Z,11.95
2023-03-05T04:19:14.088Z,10.13
2023-03-05T04:22:03.987Z,8.80
2023-03-05T04:24:52.503Z,9.27
2023-03-05T04:27:41.221Z,7.97
2023-03-05T04:30:29.712Z,15.50
2023-03-05T04:33:18.279Z,12.65
2023-03-05T04:36:07.790Z,10.32
2023-03-05T04:38:57.610Z,13.48
2023-03-05T04:41:46.085Z,9.48
2023-03-05T04:44:34.494Z,12.70
2023-03-05T04:47:22.982Z,11.35
2023-03-05T04:50:13.409Z,8.60
2023-03-05T04:53:01.896Z,9.90
2023-03-05T04:55:55.329Z,11.88
2023-03-05T04:58:44.136Z,9.77
2023-03-05T05:01:33.034Z,12.02
2023-03-05T05:04:21.537Z,10.65
2023-03-05T05:07:10.074Z,9.63
2023-03-05T05:09:58.582Z,9.30
2023-03-05T05:12:48.519Z,7.82
2023-03-05T05:15:37.006Z,8.80
2023-03-05T05:18:25.907Z,9.60
2023-03-05T05:21:15.588Z,9.10
2023-03-05T05:24:04.169Z,12.70
2023-03-05T05:26:54.774Z,7.72
2023-03-05T05:29:46.350Z,9.80
2023-03-05T05:32:35.135Z,10.18
2023-03-05T05:35:23.696Z,9.98
2023-03-05T05:38:12.160Z,10.45
2023-03-05T05:41:05.250Z,8.38
2023-03-05T05:43:53.732Z,7.70
2023-03-05T05:46:43.632Z,9.10
2023-03-05T05:49:32.676Z,10.63
2023-03-05T05:52:21.107Z,8.90
2023-03-05T05:55:10.701Z,9.63
2023-03-05T05:57:59.197Z,11.45
2023-03-05T06:00:47.629Z,7.25
2023-03-05T06:03:37.412Z,8.43
2023-03-05T06:06:27.260Z,8.93
2023-03-05T06:09:15.860Z,9.20
2023-03-05T06:12:04.973Z,8.48
2023-03-05T06:14:53.946Z,9.50
2023-03-05T06:17:42.471Z,7.65
2023-03-05T06:20:32.282Z,8.30
2023-03-05T06:23:20.768Z,8.50
2023-03-05T06:26:11.753Z,9.48
2023-03-05T06:29:00.216Z,9.25
2023-03-05T06:31:48.931Z,8.20
2023-03-05T06:34:37.547Z,8.45
2023-03-05T06:37:27.455Z,8.82
2023-03-05T06:40:16.469Z,10.07
2023-03-05T06:43:04.907Z,8.98
2023-03-05T06:46:03.153Z,7.05
2023-03-05T06:48:52.681Z,9.07
2023-03-05T06:51:42.434Z,9.40
2023-03-05T06:54:32.554Z,12.25
2023-03-05T06:57:21.082Z,10.63
2023-03-05T07:00:11.949Z,11.30
2023-03-05T07:03:00.436Z,11.13
2023-03-05T07:05:48.889Z,12.60
2023-03-05T07:08:38.050Z,9.50
2023-03-05T07:11:28.346Z,9.90
2023-03-05T07:14:16.933Z,9.10
2023-03-05T07:17:06.784Z,12.93
2023-03-05T07:19:55.222Z,12.40
2023-03-05T07:22:43.732Z,10.50
2023-03-05T07:25:32.509Z,11.70
2023-03-05T07:28:22.346Z,14.10
2023-03-05T07:31:14.715Z,13.00
2023-03-05T07:34:04.813Z,9.55
2023-03-05T07:36:53.965Z,10.90
2023-03-05T07:39:42.408Z,12.27
2023-03-05T07:42:30.906Z,10.90
2023-03-05T07:45:20.767Z,11.82
2023-03-05T07:48:10.560Z,10.07
2023-03-05T07:51:02.885Z,11.07
2023-03-05T07:53:52.944Z,12.32
2023-03-05T07:56:41.501Z,10.25
2023-03-05T07:59:29.946Z,9.60
2023-03-05T08:02:20.833Z,10.47
2023-03-05T08:05:09.940Z,9.40
2023-03-05T08:07:58.479Z,8.47
2023-03-05T08:10:47.114Z,7.45
2023-03-05T08:13:35.662Z,8.23
2023-03-05T08:16:26.100Z,7.18
2023-03-05T08:19:15.952Z,10.90
2023-03-05T08:22:04.536Z,9.13
2023-03-05T08:24:53.157Z,11.60
2023-03-05T08:27:42.299Z,9.68
2023-03-05T08:30:30.719Z,9.85
2023-03-05T08:33:19.804Z,13.30
2023-03-05T08:36:10.880Z,9.10
2023-03-05T08:39:00.033Z,8.85
2023-03-05T08:41:48.478Z,9.00
2023-03-05T08:44:37.029Z,10.65
2023-03-05T08:47:26.938Z,9.82
2023-03-05T08:50:15.422Z,8.88
2023-03-05T08:53:05.358Z,10.75
2023-03-05T08:55:57.355Z,7.65
2023-03-05T08:58:47.267Z,9.48
2023-03-05T09:01:35.924Z,9.40
2023-03-05T09:04:24.423Z,8.70
2023-03-05T09:07:13.027Z,9.60
2023-03-05T09:10:03.009Z,8.13
2023-03-05T09:12:51.505Z,10.98
2023-03-05T09:15:40.832Z,11.17
2023-03-05T09:18:31.613Z,13.18
2023-03-05T09:21:20.099Z,11.27
2023-03-05T09:24:08.919Z,11.93
2023-03-05T09:27:01.652Z,9.68
2023-03-05T09:29:50.539Z,10.32
2023-03-05T09:32:39.323Z,11.95
2023-03-05T09:35:27.932Z,11.82
2023-03-05T09:38:16.425Z,13.05
2023-03-05T09:41:08.444Z,13.10
2023-03-05T09:44:04.259Z,14.52
2023-03-05T09:46:56.848Z,12.55
2023-03-05T09:49:55.691Z,12.20
2023-03-05T09:52:50.906Z,13.40
2023-03-05T09:55:43.000Z,14.30
2023-03-05T09:58:35.874Z,14.23
2023-03-05T10:01:29.300Z,15.50
2023-03-05T10:04:20.774Z,14.57
2023-03-05T10:07:14.131Z,13.23
2023-03-05T10:10:03.817Z,13.65
2023-03-05T10:12:54.188Z,16.42
2023-03-05T10:15:51.518Z,15.93
2023-03-05T10:18:43.355Z,16.77
2023-03-05T10:21:35.687Z,15.95
2023-03-05T10:24:32.142Z,15.65
2023-03-05T10:27:22.651Z,15.73
2023-03-05T10:30:38.542Z,15.52
2023-03-05T10:33:35.981Z,15.80
2023-03-05T10:36:41.574Z,15.77
2023-03-05T10:39:48.276Z,16.83
2023-03-05T10:42:43.796Z,17.20
2023-03-05T10:45:41.364Z,15.40
2023-03-05T10:48:36.497Z,411.08
2023-03-05T10:51:31.105Z,284.15
2023-03-05T10:54:25.612Z,126.03
2023-03-05T10:57:19.242Z,18.13
2023-03-05T11:00:13.698Z,108.45
2023-03-05T11:03:04.245Z,176.35
2023-03-05T11:05:53.702Z,666.30
2023-03-05T11:08:42.944Z,451.08
2023-03-05T11:11:33.498Z,150.40
2023-03-05T11:14:30.980Z,82.72
2023-03-05T11:17:31.131Z,45.10
2023-03-05T11:20:30.924Z,243.88
2023-03-05T11:23:20.788Z,86.85
2023-03-05T11:26:22.964Z,198.05
2023-03-05T11:29:20.036Z,20.07
2023-03-05T11:32:18.612Z,54.05
2023-03-05T11:35:23.719Z,77.70
2023-03-05T11:38:17.866Z,109.20
2023-03-05T11:41:06.660Z,85.27
2023-03-05T11:43:56.101Z,162.95
2023-03-05T11:46:47.970Z,116.55
2023-03-05T11:49:43.093Z,101.07
2023-03-05T11:52:33.423Z,211.48
2023-03-05T11:55:26.375Z,183.73
2023-03-05T11:58:28.653Z,207.43
2023-03-05T12:01:21.028Z,121.17
2023-03-05T12:04:11.368Z,101.50
2023-03-05T12:07:02.780Z,18.52
2023-03-05T12:09:53.754Z,20.75
2023-03-05T12:12:47.960Z,35.43
2023-03-05T12:15:47.765Z,20.95
2023-03-05T12:18:45.252Z,25.80
2023-03-05T12:21:38.251Z,22.63
2023-03-05T12:24:39.930Z,19.23
2023-03-05T12:27:35.694Z,24.92
2023-03-05T12:30:48.347Z,23.00
2023-03-05T12:33:38.738Z,21.60
2023-03-05T12:36:40.877Z,21.98
2023-03-05T12:39:52.669Z,30.70
2023-03-05T12:42:52.504Z,24.47
2023-03-05T12:45:42.832Z,25.80
2023-03-05T12:48:46.664Z,36.25
2023-03-05T12:51:37.736Z,86.80
2023-03-05T12:54:34.284Z,33.83
2023-03-05T12:57:26.440Z,23.58
2023-03-05T13:00:21.690Z,22.27
2023-03-05T13:03:13.576Z,19.73
2023-03-05T13:06:04.951Z,18.17
2023-03-05T13:09:00.968Z,16.73
2023-03-05T13:11:53.250Z,17.63
2023-03-05T13:14:45.234Z,17.70
2023-03-05T13:17:39.332Z,22.65
2023-03-05T13:20:29.923Z,20.02
2023-03-05T13:23:24.720Z,19.90
2023-03-05T13:26:15.589Z,18.13
2023-03-05T13:29:08.347Z,20.47
2023-03-05T13:31:59.739Z,26.95
2023-03-05T13:34:48.424Z,21.58
2023-03-05T13:37:39.285Z,17.75
2023-03-05T13:40:30.038Z,23.30
2023-03-05T13:43:20.769Z,21.63
2023-03-05T13:46:10.708Z,17.70
2023-03-05T13:49:19.141Z,14.40
2023-03-05T13:52:07.805Z,14.97
2023-03-05T13:54:56.525Z,22.10
2023-03-05T13:57:46.015Z,16.38
2023-03-05T14:00:35.722Z,15.13
2023-03-05T14:03:29.419Z,22.30
2023-03-05T14:06:19.349Z,15.65
2023-03-05T14:09:09.774Z,18.98
2023-03-05T14:12:00.426Z,17.42
2023-03-05T14:14:49.422Z,14.93
2023-03-05T14:17:40.127Z,16.58
2023-03-05T14:20:31.670Z,20.67
2023-03-05T14:23:27.762Z,21.33
2023-03-05T14:26:22.177Z,17.77
2023-03-05T14:29:17.563Z,23.40
2023-03-05T14:32:07.746Z,17.27
2023-03-05T14:34:57.969Z,20.80
2023-03-05T14:37:49.145Z,20.13
2023-03-05T14:40:38.308Z,16.55
2023-03-05T14:43:27.069Z,16.70
2023-03-05T14:46:15.846Z,16.13
2023-03-05T14:49:04.653Z,18.85
2023-03-05T14:51:53.423Z,21.98
2023-03-05T14:54:43.490Z,19.25
2023-03-05T14:57:33.318Z,25.50
2023-03-05T15:00:24.162Z,23.48
2023-03-05T15:03:12.924Z,20.15
2023-03-05T15:06:01.512Z,19.50
2023-03-05T15:08:49.949Z,16.10
2023-03-05T15:11:39.816Z,19.67
2023-03-05T15:14:28.280Z,16.30
2023-03-05T15:17:21.855Z,20.20
2023-03-05T15:20:16.673Z,19.63
2023-03-05T15:23:05.161Z,24.10
2023-03-05T15:25:53.964Z,23.33
2023-03-05T15:28:44.307Z,18.63
2023-03-05T15:31:38.706Z,22.48
2023-03-05T15:34:27.971Z,17.20
2023-03-05T15:37:16.678Z,16.73
2023-03-05T15:40:05.776Z,14.55
2023-03-05T15:42:54.532Z,11.65
2023-03-05T15:45:44.643Z,21.83
2023-03-05T15:48:33.508Z,18.20
2023-03-05T15:51:22.575Z,20.50
2023-03-05T15:54:11.531Z,20.20
2023-03-05T15:57:00.337Z,18.80
2023-03-05T15:59:49.148Z,19.42
2023-03-05T16:02:39.396Z,19.38
2023-03-05T16:05:28.241Z,17.15
2023-03-05T16:08:16.939Z,17.17
2023-03-05T16:11:06.088Z,17.10
2023-03-05T16:13:55.004Z,19.77
2023-03-05T16:16:43.799Z,18.83
2023-03-05T16:19:36.399Z,20.33
2023-03-05T16:22:25.186Z,19.52
2023-03-05T16:25:14.187Z,20.45
2023-03-05T16:28:02.937Z,19.65
2023-03-05T16:30:54.568Z,17.27
2023-03-05T16:33:43.313Z,13.02
2023-03-05T16:36:35.667Z,18.15
2023-03-05T16:39:24.787Z,18.60
2023-03-05T16:42:14.020Z,14.10
2023-03-05T16:45:02.565Z,17.67
2023-03-05T16:47:52.876Z,20.80
2023-03-05T16:50:41.408Z,21.05
2023-03-05T16:53:31.291Z,17.52
2023-03-05T16:56:19.873Z,20.40
2023-03-05T16:59:08.509Z,18.40
2023-03-05T17:01:57.044Z,21.08
2023-03-05T17:04:46.061Z,17.38
2023-03-05T17:07:34.502Z,18.48
2023-03-05T17:10:24.640Z,14.68
2023-03-05T17:13:13.355Z,21.45
2023-03-05T17:16:02.123Z,21.98
2023-03-05T17:18:50.966Z,18.83
2023-03-05T17:21:42.288Z,17.45
2023-03-05T17:24:32.993Z,21.87
2023-03-05T17:27:23.338Z,23.25
2023-03-05T17:30:12.957Z,22.58
2023-03-05T17:33:01.762Z,12.70
2023-03-05T17:35:50.569Z,12.75
2023-03-05T17:38:39.400Z,15.32
2023-03-05T17:41:28.133Z,15.35
2023-03-05T17:44:18.372Z,13.02
2023-03-05T17:47:07.214Z,13.20
2023-03-05T17:49:55.950Z,11.70
2023-03-05T17:52:45.564Z,17.17
2023-03-05T17:55:34.656Z,17.73
2023-03-05T17:58:23.435Z,20.55
2023-03-05T18:01:13.564Z,15.38
2023-03-05T18:04:02.526Z,20.60
2023-03-05T18:06:51.342Z,19.42
2023-03-05T18:09:40.114Z,20.23
2023-03-05T18:12:28.944Z,20.33
2023-03-05T18:15:18.726Z,13.43
2023-03-05T18:18:08.922Z,13.10
2023-03-05T18:20:57.738Z,15.80
2023-03-05T18:23:46.545Z,15.90
2023-03-05T18:26:35.310Z,15.82
2023-03-05T18:29:24.032Z,11.35
2023-03-05T18:32:12.745Z,7.85
2023-03-05T18:35:02.910Z,8.50
2023-03-05T18:37:51.669Z,8.97
2023-03-05T18:40:41.174Z,10.30
2023-03-05T18:43:29.978Z,9.07
2023-03-05T18:46:18.904Z,11.10
2023-03-05T18:49:08.540Z,14.32
2023-03-05T18:51:58.643Z,7.93
2023-03-05T18:54:47.373Z,9.82
2023-03-05T18:57:36.207Z,12.98
2023-03-05T19:00:27.484Z,11.57
2023-03-05T19:03:16.364Z,8.88
2023-03-05T19:06:07.043Z,6.87
2023-03-05T19:09:42.518Z,8.77
2023-03-05T19:12:34.133Z,8.20
2023-03-05T19:15:23.360Z,9.10
2023-03-05T19:18:12.066Z,10.82
2023-03-05T19:21:00.828Z,10.48
2023-03-05T19:23:49.581Z,12.13
2023-03-05T19:26:38.318Z,14.03
2023-03-05T19:29:30.228Z,10.75
2023-03-05T19:32:20.976Z,11.35
2023-03-05T19:35:10.597Z,14.67
2023-03-05T19:37:59.304Z,13.18
2023-03-05T19:40:48.880Z,9.43
2023-03-05T19:43:37.991Z,10.80
2023-03-05T19:46:28.222Z,14.43
2023-03-05T19:49:16.955Z,11.25
2023-03-05T19:52:06.241Z,15.05
2023-03-05T19:54:54.991Z,14.90
2023-03-05T19:57:43.746Z,13.57
2023-03-05T20:00:32.529Z,14.18
2023-03-05T20:03:22.653Z,13.52
2023-03-05T20:06:11.525Z,10.98
2023-03-05T20:09:00.440Z,15.17
2023-03-05T20:11:49.396Z,14.90
2023-03-05T20:14:38.125Z,16.38
2023-03-05T20:17:26.863Z,14.02
2023-03-05T20:20:17.508Z,12.38
2023-03-05T20:23:06.269Z,13.60
2023-03-05T20:25:55.015Z,13.27
2023-03-05T20:28:44.017Z,12.30
2023-03-05T20:31:33.931Z,17.70
2023-03-05T20:34:22.781Z,18.20
2023-03-05T20:37:12.910Z,13.03
2023-03-05T20:40:01.688Z,14.77
2023-03-05T20:42:51.719Z,20.75
2023-03-05T20:45:40.483Z,21.27
2023-03-05T20:48:29.982Z,12.57
2023-03-05T20:51:21.151Z,17.15
2023-03-05T20:54:13.097Z,18.77
2023-03-05T20:57:01.817Z,13.60
2023-03-05T20:59:50.536Z,16.73
2023-03-05T21:02:39.908Z,16.88
2023-03-05T21:05:30.238Z,22.77
2023-03-05T21:08:18.985Z,18.67
2023-03-05T21:11:10.221Z,17.38
2023-03-05T21:13:59.325Z,15.35
2023-03-05T21:16:48.089Z,18.23
2023-03-05T21:19:38.989Z,17.13
2023-03-05T21:22:27.706Z,15.18
2023-03-05T21:25:20.939Z,19.52
2023-03-05T21:28:12.991Z,18.43
2023-03-05T21:31:07.925Z,17.55
2023-03-05T21:33:56.386Z,18.45
2023-03-05T21:36:44.817Z,17.95
2023-03-05T21:39:33.305Z,18.35
2023-03-05T21:42:21.782Z,20.40
2023-03-05T21:45:14.239Z,17.98
2023-03-05T21:48:02.743Z,16.60
2023-03-05T21:50:52.449Z,14.82
2023-03-05T21:53:40.991Z,17.80
2023-03-05T21:56:31.016Z,19.58
2023-03-05T21:59:19.455Z,21.13
2023-03-05T22:02:12.789Z,15.82
2023-03-05T22:05:01.170Z,15.88
2023-03-05T22:07:49.685Z,17.42
2023-03-05T22:10:38.292Z,16.17
2023-03-05T22:13:26.810Z,16.08
2023-03-05T22:16:23.208Z,14.70
2023-03-05T22:19:13.180Z,19.83
2023-03-05T22:22:02.064Z,16.70
2023-03-05T22:24:50.524Z,16.10
2023-03-05T22:27:38.988Z,16.97
2023-03-05T22:30:27.624Z,20.95
2023-03-05T22:33:16.114Z,17.37
2023-03-05T22:36:11.063Z,16.85
2023-03-05T22:38:59.539Z,17.95
2023-03-05T22:45:09.926Z,14.50
2023-03-05T22:47:58.462Z,18.83
2023-03-05T22:50:46.910Z,16.10
2023-03-05T22:53:36.801Z,16.80
2023-03-05T22:56:25.286Z,16.20
2023-03-05T22:59:13.961Z,12.27
2023-03-05T23:02:02.419Z,17.00
2023-03-05T23:04:53.293Z,15.57
2023-03-05T23:07:43.339Z,17.35
2023-03-05T23:10:33.754Z,18.38
2023-03-05T23:13:22.232Z,11.03
2023-03-05T23:16:10.785Z,14.70
2023-03-05T23:18:59.356Z,15.67
2023-03-05T23:21:47.906Z,13.73
2023-03-05T23:24:36.463Z,15.00
2023-03-05T23:27:26.303Z,12.85
2023-03-05T23:30:20.764Z,17.00
2023-03-05T23:33:14.976Z,17.48
2023-03-05T23:36:03.569Z,12.88
2023-03-05T23:38:53.273Z,11.93
2023-03-05T23:41:41.762Z,15.73
2023-03-05T23:44:31.600Z,16.58
2023-03-05T23:47:20.040Z,13.98
2023-03-05T23:50:10.827Z,15.65
2023-03-05T23:53:01.981Z,15.93
2023-03-05T23:55:51.711Z,15.05
2023-03-05T23:58:40.440Z,13.73
